createdAt,value
2022-11-15T00:00:52.754Z,100310.88
2022-11-15T00:03:22.033Z,100307.22
2022-11-15T00:05:48.749Z,100302.25
2022-11-15T00:08:15.424Z,100293.66
2022-11-15T00:10:41.912Z,100311.97
2022-11-15T00:13:10.641Z,100301.25
2022-11-15T00:15:38.471Z,100307.22
2022-11-15T00:18:06.372Z,100299.31
2022-11-15T00:20:34.846Z,100299.91
2022-11-15T00:23:01.151Z,100299.91
2022-11-15T00:25:28.110Z,100291.72
2022-11-15T00:27:59.139Z,100291.81
2022-11-15T00:30:25.806Z,100306.09
2022-11-15T00:32:52.216Z,100315.69
2022-11-15T00:35:19.765Z,100299.06
2022-11-15T00:37:47.394Z,100284.72
2022-11-15T00:40:14.015Z,100292.47
2022-11-15T00:42:40.906Z,100291.84
2022-11-15T00:45:07.842Z,100286.38
2022-11-15T00:47:34.112Z,100290.09
2022-11-15T00:50:00.445Z,100286.63
2022-11-15T00:52:26.743Z,100281.13
2022-11-15T00:54:53.222Z,100273.94
2022-11-15T00:57:19.514Z,100272.53
2022-11-15T00:59:45.816Z,100271.34
2022-11-15T01:02:12.092Z,100277.75
2022-11-15T01:07:29.375Z,100259.88
2022-11-15T01:09:55.713Z,100267.22
2022-11-15T01:12:22.028Z,100262.72
2022-11-15T01:14:48.323Z,100263.84
2022-11-15T01:17:14.735Z,100271.03
2022-11-15T01:19:41.037Z,100264.13
2022-11-15T01:22:07.350Z,100255.50
2022-11-15T01:24:33.741Z,100237.22
2022-11-15T01:27:00.047Z,100267.00
2022-11-15T01:29:26.479Z,100265.69
2022-11-15T01:31:54.238Z,100259.63
2022-11-15T01:34:20.604Z,100257.59
2022-11-15T01:36:47.666Z,100257.63
2022-11-15T01:39:14.146Z,100260.44
2022-11-15T01:41:40.429Z,100256.91
2022-11-15T01:44:31.923Z,100260.81
2022-11-15T01:47:02.755Z,100260.94
2022-11-15T01:49:33.267Z,100252.09
2022-11-15T01:52:02.521Z,100243.72
2022-11-15T01:54:29.401Z,100256.25
2022-11-15T01:57:02.736Z,100256.66
2022-11-15T01:59:29.309Z,100251.03
2022-11-15T02:01:56.138Z,100245.97
2022-11-15T02:04:32.607Z,100240.34
2022-11-15T02:07:00.938Z,100232.59
2022-11-15T02:09:27.327Z,100234.78
2022-11-15T02:11:56.751Z,100234.66
2022-11-15T02:14:26.230Z,100232.13
2022-11-15T02:17:09.731Z,100226.78
2022-11-15T02:19:56.810Z,100223.53
2022-11-15T02:22:40.125Z,100221.34
2022-11-15T02:25:34.846Z,100225.16
2022-11-15T02:28:19.345Z,100217.22
2022-11-15T02:30:48.226Z,100220.03
2022-11-15T02:33:37.357Z,100215.09
2022-11-15T02:36:23.515Z,100210.19
2022-11-15T02:38:58.141Z,100199.63
2022-11-15T02:41:45.198Z,100193.06
2022-11-15T02:44:15.506Z,100191.56
2022-11-15T02:47:07.396Z,100198.69
2022-11-15T02:49:36.077Z,100183.22
2022-11-15T02:52:02.905Z,100181.72
2022-11-15T02:54:34.300Z,100182.38
2022-11-15T02:57:05.589Z,100183.78
2022-11-15T02:59:57.647Z,100187.91
2022-11-15T03:02:57.841Z,100181.84
2022-11-15T03:05:54.183Z,100178.84
2022-11-15T03:08:27.171Z,100185.63
2022-11-15T03:11:11.314Z,100197.31
2022-11-15T03:13:40.525Z,100193.41
2022-11-15T03:16:17.832Z,100195.34
2022-11-15T03:18:53.640Z,100200.56
2022-11-15T03:21:22.767Z,100178.41
2022-11-15T03:23:51.732Z,100182.09
2022-11-15T03:26:22.182Z,100184.19
2022-11-15T03:28:54.102Z,100192.66
2022-11-15T03:31:43.432Z,100191.94
2022-11-15T03:34:35.070Z,100181.25
2022-11-15T03:37:02.585Z,100182.09
2022-11-15T03:39:29.999Z,100196.91
2022-11-15T03:42:12.433Z,100184.53
2022-11-15T03:44:48.898Z,100180.03
2022-11-15T03:47:24.950Z,100178.34
2022-11-15T03:49:56.520Z,100175.91
2022-11-15T03:52:23.216Z,100178.72
2022-11-15T03:54:55.761Z,100185.19
2022-11-15T03:57:22.240Z,100184.34
2022-11-15T03:59:48.681Z,100183.34
2022-11-15T04:02:15.179Z,100186.41
2022-11-15T04:04:41.487Z,100185.72
2022-11-15T04:07:07.865Z,100182.50
2022-11-15T04:09:34.514Z,100175.19
2022-11-15T04:12:00.798Z,100188.47
2022-11-15T04:14:27.110Z,100174.84
2022-11-15T04:16:53.412Z,100171.19
2022-11-15T04:19:38.390Z,100168.09
2022-11-15T04:22:23.019Z,100170.63
2022-11-15T04:24:49.360Z,100180.97
2022-11-15T04:27:15.693Z,100178.88
2022-11-15T04:29:42.572Z,100161.88
2022-11-15T04:32:08.942Z,100161.69
2022-11-15T04:34:36.082Z,100165.66
2022-11-15T04:37:14.815Z,100171.88
2022-11-15T04:39:41.938Z,100173.28
2022-11-15T04:42:09.097Z,100172.56
2022-11-15T04:44:35.763Z,100168.34
2022-11-15T04:47:02.712Z,100159.31
2022-11-15T04:49:29.069Z,100167.91
2022-11-15T04:51:55.360Z,100144.28
2022-11-15T04:54:21.667Z,100153.72
2022-11-15T04:56:48.013Z,100154.44
2022-11-15T04:59:14.325Z,100154.00
2022-11-15T05:01:44.723Z,100149.06
2022-11-15T05:04:20.509Z,100141.47
2022-11-15T05:06:48.500Z,100124.00
2022-11-15T05:09:15.076Z,100139.78
2022-11-15T05:11:42.193Z,100146.28
2022-11-15T05:14:08.550Z,100138.25
2022-11-15T05:16:35.086Z,100127.09
2022-11-15T05:19:01.424Z,100127.09
2022-11-15T05:21:27.928Z,100125.41
2022-11-15T05:23:54.220Z,100127.53
2022-11-15T05:26:20.561Z,100135.69
2022-11-15T05:28:46.867Z,100135.69
2022-11-15T05:31:16.299Z,100142.84
2022-11-15T05:33:44.557Z,100135.81
2022-11-15T05:36:14.968Z,100129.34
2022-11-15T05:38:41.733Z,100130.91
2022-11-15T05:41:08.363Z,100135.56
2022-11-15T05:43:38.364Z,100131.88
2022-11-15T05:46:05.679Z,100134.41
2022-11-15T05:48:35.025Z,100122.03
2022-11-15T05:51:02.831Z,100110.72
2022-11-15T05:53:29.464Z,100113.84
2022-11-15T05:55:55.971Z,100111.00
2022-11-15T05:58:22.572Z,100105.09
2022-11-15T06:00:49.279Z,100103.97
2022-11-15T06:03:15.596Z,100118.91
2022-11-15T06:05:41.906Z,100123.28
2022-11-15T06:08:08.205Z,100120.03
2022-11-15T06:10:34.553Z,100133.88
2022-11-15T06:13:03.181Z,100137.50
2022-11-15T06:15:29.914Z,100134.56
2022-11-15T06:17:59.933Z,100142.84
2022-11-15T06:20:28.042Z,100134.13
2022-11-15T06:22:59.114Z,100131.59
2022-11-15T06:25:26.022Z,100136.66
2022-11-15T06:27:53.781Z,100115.81
2022-11-15T06:30:20.716Z,100121.16
2022-11-15T06:32:47.095Z,100125.38
2022-11-15T06:35:14.082Z,100134.09
2022-11-15T06:37:40.819Z,100123.63
2022-11-15T06:40:08.879Z,100136.63
2022-11-15T06:42:35.327Z,100135.63
2022-11-15T06:45:02.062Z,100128.03
2022-11-15T06:47:28.395Z,100130.00
2022-11-15T06:49:54.743Z,100132.25
2022-11-15T06:52:22.510Z,100141.53
2022-11-15T06:54:48.895Z,100149.31
2022-11-15T06:57:15.244Z,100141.28
2022-11-15T06:59:41.623Z,100138.75
2022-11-15T07:02:14.057Z,100140.13
2022-11-15T07:04:40.395Z,100121.38
2022-11-15T07:07:06.891Z,100132.97
2022-11-15T07:09:33.263Z,100136.22
2022-11-15T07:12:04.656Z,100128.59
2022-11-15T07:14:33.719Z,100133.53
2022-11-15T07:17:00.110Z,100124.53
2022-11-15T07:19:26.559Z,100125.78
2022-11-15T07:21:52.829Z,100143.81
2022-11-15T07:24:19.119Z,100129.72
2022-11-15T07:26:45.420Z,100138.06
2022-11-15T07:29:11.739Z,100123.69
2022-11-15T07:31:38.897Z,100132.28
2022-11-15T07:34:05.227Z,100138.78
2022-11-15T07:36:31.553Z,100134.25
2022-11-15T07:38:57.876Z,100134.81
2022-11-15T07:41:24.175Z,100129.75
2022-11-15T07:43:53.483Z,100129.47
2022-11-15T07:46:19.802Z,100128.34
2022-11-15T07:48:46.100Z,100111.84
2022-11-15T07:51:14.905Z,100130.47
2022-11-15T07:53:42.245Z,100132.16
2022-11-15T07:56:09.237Z,100139.22
2022-11-15T07:58:35.934Z,100145.44
2022-11-15T08:01:10.446Z,100143.44
2022-11-15T08:03:37.559Z,100136.56
2022-11-15T08:06:05.113Z,100144.88
2022-11-15T08:08:31.510Z,100146.28
2022-11-15T08:11:01.568Z,100153.06
2022-11-15T08:13:28.239Z,100141.50
2022-11-15T08:16:01.961Z,100137.22
2022-11-15T08:18:28.427Z,100139.22
2022-11-15T08:20:54.752Z,100135.53
2022-11-15T08:23:21.098Z,100135.44
2022-11-15T08:25:47.415Z,100133.00
2022-11-15T08:28:13.795Z,100133.72
2022-11-15T08:30:43.435Z,100138.66
2022-11-15T08:33:14.777Z,100133.00
2022-11-15T08:35:43.008Z,100131.03
2022-11-15T08:38:09.578Z,100128.50
2022-11-15T08:40:36.908Z,100119.75
2022-11-15T08:43:03.804Z,100114.84
2022-11-15T08:45:31.344Z,100118.06
2022-11-15T08:47:57.722Z,100117.19
2022-11-15T08:50:24.224Z,100126.50
2022-11-15T08:52:50.585Z,100121.84
2022-11-15T08:55:17.790Z,100119.84
2022-11-15T08:57:44.518Z,100123.09
2022-11-15T09:00:12.411Z,100115.75
2022-11-15T09:02:41.827Z,100124.78
2022-11-15T09:05:09.041Z,100121.41
2022-11-15T09:07:35.654Z,100119.13
2022-11-15T09:10:02.116Z,100119.97
2022-11-15T09:12:28.669Z,100125.31
2022-11-15T09:14:55.709Z,100111.78
2022-11-15T09:17:24.945Z,100119.41
2022-11-15T09:19:51.874Z,100112.91
2022-11-15T09:22:18.760Z,100118.41
2022-11-15T09:24:45.035Z,100124.19
2022-11-15T09:27:11.418Z,100116.84
2022-11-15T09:29:37.740Z,100117.53
2022-11-15T09:32:04.367Z,100128.94
2022-11-15T09:34:30.658Z,100113.84
2022-11-15T09:36:57.046Z,100121.31
2022-11-15T09:39:23.391Z,100120.31
2022-11-15T09:42:00.649Z,100109.44
2022-11-15T09:44:39.115Z,100105.34
2022-11-15T09:47:39.357Z,100092.31
2022-11-15T09:50:16.009Z,100104.44
2022-11-15T09:52:46.166Z,100092.31
2022-11-15T09:55:15.938Z,100099.75
2022-11-15T09:57:55.452Z,100102.28
2022-11-15T10:00:46.438Z,100096.81
2022-11-15T10:03:42.804Z,100101.16
2022-11-15T10:06:22.684Z,100105.13
2022-11-15T10:09:30.086Z,100093.28
2022-11-15T10:11:57.215Z,100097.66
2022-11-15T10:14:28.070Z,100097.81
2022-11-15T10:17:51.552Z,100099.34
2022-11-15T10:20:22.517Z,100083.28
2022-11-15T10:22:52.403Z,100089.03
2022-11-15T10:25:20.576Z,100096.81
2022-11-15T10:28:15.278Z,100077.59
2022-11-15T10:30:47.856Z,100079.28
2022-11-15T10:33:26.461Z,100083.97
2022-11-15T10:36:19.352Z,100078.59
2022-11-15T10:38:48.786Z,100073.53
2022-11-15T10:41:17.212Z,100077.50
2022-11-15T10:43:44.050Z,100070.44
2022-11-15T10:46:45.737Z,100060.03
2022-11-15T10:49:18.425Z,100051.81
2022-11-15T10:51:49.888Z,100037.41
2022-11-15T10:54:26.797Z,100043.78
2022-11-15T10:56:55.523Z,100029.75
2022-11-15T10:59:28.743Z,100023.25
2022-11-15T11:01:55.743Z,100006.97
2022-11-15T11:04:22.457Z,100000.47
2022-11-15T11:06:53.173Z,100001.41
2022-11-15T11:09:43.155Z,100005.31
2022-11-15T11:12:13.097Z,100001.63
2022-11-15T11:14:40.511Z,99984.38
2022-11-15T11:17:52.439Z,99988.53
2022-11-15T11:20:28.260Z,99993.31
2022-11-15T11:23:05.263Z,99988.78
2022-11-15T11:25:39.264Z,99982.94
2022-11-15T11:28:40.796Z,99985.28
2022-11-15T11:31:07.116Z,99981.41
2022-11-15T11:33:58.274Z,99977.41
2022-11-15T11:36:39.392Z,99978.09
2022-11-15T11:39:38.697Z,99971.72
2022-11-15T11:42:10.475Z,99971.72
2022-11-15T11:45:02.067Z,99953.28
2022-11-15T11:47:35.882Z,99955.69
2022-11-15T11:50:19.336Z,99954.44
2022-11-15T11:53:09.252Z,99953.66
2022-11-15T11:55:41.002Z,99951.81
2022-11-15T11:58:18.479Z,99932.31
2022-11-15T12:00:52.876Z,99947.16
2022-11-15T12:03:42.897Z,99942.47
2022-11-15T12:06:28.630Z,99931.88
2022-11-15T12:09:03.660Z,99916.75
2022-11-15T12:11:48.738Z,99923.88
2022-11-15T12:14:28.223Z,99924.41
2022-11-15T12:16:54.704Z,99912.53
2022-11-15T12:19:21.051Z,99908.38
2022-11-15T12:21:55.393Z,99905.41
2022-11-15T12:24:32.559Z,99901.72
2022-11-15T12:27:24.918Z,99908.09
2022-11-15T12:29:57.078Z,99899.81
2022-11-15T12:32:31.435Z,99901.66
2022-11-15T12:34:59.466Z,99902.16
2022-11-15T12:37:49.171Z,99895.09
2022-11-15T12:40:24.717Z,99888.72
2022-11-15T12:43:03.909Z,99890.28
2022-11-15T12:45:33.780Z,99868.78
2022-11-15T12:48:18.434Z,99876.03
2022-11-15T12:50:58.920Z,99874.53
2022-11-15T12:53:28.621Z,99865.16
2022-11-15T12:56:04.192Z,99871.03
2022-11-15T12:59:08.942Z,99862.78
2022-11-15T13:01:55.247Z,99875.06
2022-11-15T13:04:25.093Z,99867.13
2022-11-15T13:06:55.614Z,99855.41
2022-11-15T13:09:37.218Z,99850.50
2022-11-15T13:12:08.428Z,99848.31
2022-11-15T13:14:37.671Z,99845.31
2022-11-15T13:17:22.598Z,99836.06
2022-11-15T13:20:07.069Z,99829.50
2022-11-15T13:22:52.322Z,99819.44
2022-11-15T13:25:20.253Z,99822.63
2022-11-15T13:27:51.073Z,99825.69
2022-11-15T13:30:22.518Z,99821.81
2022-11-15T13:32:49.727Z,99816.25
2022-11-15T13:35:22.956Z,99816.59
2022-11-15T13:37:50.023Z,99812.06
2022-11-15T13:40:28.209Z,99811.06
2022-11-15T13:42:54.898Z,99796.75
2022-11-15T13:45:21.554Z,99800.66
2022-11-15T13:47:58.786Z,99798.09
2022-11-15T13:50:30.547Z,99785.81
2022-11-15T13:53:02.422Z,99789.00
2022-11-15T13:55:31.293Z,99789.88
2022-11-15T13:57:59.891Z,99785.66
2022-11-15T14:00:44.187Z,99781.94
2022-11-15T14:03:22.131Z,99781.81
2022-11-15T14:06:12.848Z,99772.72
2022-11-15T14:08:58.187Z,99754.03
2022-11-15T14:11:26.354Z,99747.13
2022-11-15T14:14:13.399Z,99746.97
2022-11-15T14:16:48.009Z,99753.34
2022-11-15T14:19:36.051Z,99749.16
2022-11-15T14:22:13.435Z,99742.75
2022-11-15T14:24:41.526Z,99733.38
2022-11-15T14:27:25.365Z,99732.19
2022-11-15T14:29:52.042Z,99741.25
2022-11-15T14:32:20.284Z,99730.31
2022-11-15T14:34:47.330Z,99724.28
2022-11-15T14:37:35.582Z,99727.16
2022-11-15T14:40:06.895Z,99710.13
2022-11-15T14:42:33.563Z,99709.81
2022-11-15T14:44:59.920Z,99706.47
2022-11-15T14:47:26.240Z,99700.06
2022-11-15T14:49:52.600Z,99701.75
2022-11-15T14:52:31.801Z,99701.06
2022-11-15T14:55:00.133Z,99700.06
2022-11-15T14:57:26.512Z,99694.50
2022-11-15T14:59:53.736Z,99693.00
2022-11-15T15:02:25.852Z,99688.47
2022-11-15T15:04:52.654Z,99684.94
2022-11-15T15:07:19.155Z,99680.56
2022-11-15T15:09:46.443Z,99666.44
2022-11-15T15:12:23.753Z,99654.50
2022-11-15T15:14:51.530Z,99664.94
2022-11-15T15:17:18.085Z,99651.97
2022-11-15T15:19:44.455Z,99652.50
2022-11-15T15:22:19.711Z,99644.75
2022-11-15T15:24:46.813Z,99636.50
2022-11-15T15:27:13.682Z,99649.41
2022-11-15T15:29:43.516Z,99648.25
2022-11-15T15:32:11.243Z,99635.81
2022-11-15T15:34:37.599Z,99628.41
2022-11-15T15:37:26.713Z,99642.88
2022-11-15T15:39:54.915Z,99632.78
2022-11-15T15:42:22.107Z,99630.44
2022-11-15T15:44:49.620Z,99628.22
2022-11-15T15:47:23.437Z,99624.72
2022-11-15T15:49:51.350Z,99621.53
2022-11-15T15:52:18.618Z,99620.81
2022-11-15T15:54:45.140Z,99623.69
2022-11-15T15:57:15.018Z,99627.38
2022-11-15T15:59:41.531Z,99626.03
2022-11-15T16:02:12.349Z,99612.91
2022-11-15T16:04:38.905Z,99621.50
2022-11-15T16:07:05.350Z,99625.69
2022-11-15T16:09:50.475Z,99615.28
2022-11-15T16:12:17.500Z,99610.75
2022-11-15T16:14:43.800Z,99607.53
2022-11-15T16:17:19.116Z,99608.03
2022-11-15T16:19:45.403Z,99608.34
2022-11-15T16:22:11.766Z,99607.84
2022-11-15T16:24:38.056Z,99616.41
2022-11-15T16:27:04.616Z,99606.50
2022-11-15T16:29:31.000Z,99612.00
2022-11-15T16:31:57.338Z,99592.72
2022-11-15T16:34:23.658Z,99600.09
2022-11-15T16:36:50.547Z,99600.75
2022-11-15T16:39:19.320Z,99597.88
2022-11-15T16:41:47.646Z,99596.03
2022-11-15T16:44:14.846Z,99590.84
2022-11-15T16:46:44.251Z,99584.13
2022-11-15T16:49:15.240Z,99577.91
2022-11-15T16:51:42.319Z,99575.22
2022-11-15T16:54:08.657Z,99578.91
2022-11-15T16:56:34.954Z,99566.97
2022-11-15T16:59:01.829Z,99563.47
2022-11-15T17:01:36.182Z,99574.38
2022-11-15T17:04:13.121Z,99565.63
2022-11-15T17:06:41.084Z,99556.88
2022-11-15T17:09:12.741Z,99555.00
2022-11-15T17:11:41.168Z,99549.44
2022-11-15T17:14:07.501Z,99552.81
2022-11-15T17:16:35.087Z,99549.13
2022-11-15T17:19:01.747Z,99546.91
2022-11-15T17:21:32.599Z,99546.06
2022-11-15T17:24:00.393Z,99532.78
2022-11-15T17:26:33.081Z,99543.56
2022-11-15T17:29:01.744Z,99538.34
2022-11-15T17:31:30.619Z,99530.47
2022-11-15T17:33:56.994Z,99537.50
2022-11-15T17:36:23.371Z,99535.00
2022-11-15T17:38:55.431Z,99536.16
2022-11-15T17:41:25.665Z,99533.81
2022-11-15T17:43:52.034Z,99534.81
2022-11-15T17:46:20.879Z,99539.19
2022-11-15T17:48:48.219Z,99533.16
2022-11-15T17:51:16.690Z,99534.81
2022-11-15T17:53:45.771Z,99527.13
2022-11-15T17:56:17.595Z,99520.88
2022-11-15T17:58:51.528Z,99521.88
2022-11-15T18:01:31.864Z,99513.00
2022-11-15T18:04:00.675Z,99516.72
2022-11-15T18:06:30.376Z,99518.41
2022-11-15T18:08:57.398Z,99523.47
2022-11-15T18:11:25.562Z,99510.72
2022-11-15T18:13:54.842Z,99510.53
2022-11-15T18:16:25.884Z,99500.97
2022-11-15T18:18:53.813Z,99506.19
2022-11-15T18:21:23.451Z,99497.47
2022-11-15T18:23:53.825Z,99500.28
2022-11-15T18:26:24.395Z,99483.00
2022-11-15T18:29:01.722Z,99493.75
2022-11-15T18:31:30.028Z,99488.56
2022-11-15T18:33:59.197Z,99491.72
2022-11-15T18:36:28.273Z,99488.22
2022-11-15T18:39:02.197Z,99482.34
2022-11-15T18:41:29.350Z,99488.56
2022-11-15T18:44:00.721Z,99484.84
2022-11-15T18:46:30.732Z,99481.47
2022-11-15T18:48:59.455Z,99479.47
2022-11-15T18:51:27.360Z,99477.47
2022-11-15T18:53:55.479Z,99476.41
2022-11-15T18:56:23.373Z,99479.78
2022-11-15T18:58:52.369Z,99476.25
2022-11-15T19:01:28.757Z,99472.88
2022-11-15T19:03:57.165Z,99470.31
2022-11-15T19:06:26.278Z,99469.66
2022-11-15T19:08:54.740Z,99467.28
2022-11-15T19:11:24.074Z,99455.38
2022-11-15T19:14:11.270Z,99464.91
2022-11-15T19:16:40.308Z,99461.25
2022-11-15T19:19:10.443Z,99454.53
2022-11-15T19:21:36.751Z,99449.84
2022-11-15T19:24:03.379Z,99456.53
2022-11-15T19:26:30.024Z,99459.41
2022-11-15T19:29:00.038Z,99457.25
2022-11-15T19:31:28.811Z,99462.66
2022-11-15T19:33:55.996Z,99460.59
2022-11-15T19:36:26.736Z,99461.78
2022-11-15T19:38:54.086Z,99453.19
2022-11-15T19:41:22.796Z,99455.19
2022-11-15T19:43:52.590Z,99445.66
2022-11-15T19:46:21.735Z,99443.81
2022-11-15T19:48:48.522Z,99449.34
2022-11-15T19:51:19.276Z,99442.25
2022-11-15T19:53:45.738Z,99438.91
2022-11-15T19:56:14.575Z,99427.88
2022-11-15T19:58:41.662Z,99430.72
2022-11-15T20:01:23.912Z,99433.94
2022-11-15T20:03:54.333Z,99431.75
2022-11-15T20:06:26.734Z,99426.72
2022-11-15T20:08:53.486Z,99437.09
2022-11-15T20:11:20.492Z,99428.06
2022-11-15T20:13:46.954Z,99432.28
2022-11-15T20:16:19.666Z,99427.56
2022-11-15T20:18:47.054Z,99422.00
2022-11-15T20:21:13.601Z,99426.00
2022-11-15T20:23:40.506Z,99419.94
2022-11-15T20:26:07.842Z,99421.97
2022-11-15T20:28:36.886Z,99426.16
2022-11-15T20:31:03.923Z,99419.63
2022-11-15T20:33:30.315Z,99415.25
2022-11-15T20:35:56.611Z,99411.41
2022-11-15T20:38:23.520Z,99406.22
2022-11-15T20:40:56.056Z,99404.53
2022-11-15T20:43:25.267Z,99397.50
2022-11-15T20:45:51.532Z,99394.81
2022-11-15T20:48:17.987Z,99398.16
2022-11-15T20:50:46.000Z,99391.13
2022-11-15T20:53:15.132Z,99378.03
2022-11-15T20:55:47.761Z,99374.34
2022-11-15T20:58:15.222Z,99375.19
2022-11-15T21:00:43.048Z,99376.72
2022-11-15T21:03:09.547Z,99374.22
2022-11-15T21:05:40.242Z,99379.56
2022-11-15T21:08:08.195Z,99359.44
2022-11-15T21:10:53.045Z,99374.34
2022-11-15T21:13:19.969Z,99367.13
2022-11-15T21:15:46.987Z,99371.66
2022-11-15T21:18:13.942Z,99360.44
2022-11-15T21:20:40.570Z,99360.28
2022-11-15T21:23:06.985Z,99339.47
2022-11-15T21:25:34.234Z,99361.09
2022-11-15T21:28:00.578Z,99355.91
2022-11-15T21:30:27.330Z,99353.41
2022-11-15T21:32:53.621Z,99341.31
2022-11-15T21:35:20.011Z,99345.84
2022-11-15T21:37:47.250Z,99358.41
2022-11-15T21:40:16.162Z,99354.41
2022-11-15T21:42:42.426Z,99352.88
2022-11-15T21:45:09.222Z,99343.31
2022-11-15T21:47:35.496Z,99342.50
2022-11-15T21:50:01.847Z,99348.69
2022-11-15T21:52:28.202Z,99347.38
2022-11-15T21:54:54.527Z,99335.78
2022-11-15T21:57:21.184Z,99346.88
2022-11-15T22:00:06.109Z,99353.06
2022-11-15T22:02:32.375Z,99347.22
2022-11-15T22:04:58.663Z,99343.16
2022-11-15T22:07:25.029Z,99337.66
2022-11-15T22:09:51.430Z,99340.47
2022-11-15T22:12:17.782Z,99337.50
2022-11-15T22:14:44.062Z,99335.13
2022-11-15T22:17:10.748Z,99328.09
2022-11-15T22:19:51.617Z,99331.44
2022-11-15T22:22:18.937Z,99329.09
2022-11-15T22:24:45.234Z,99326.25
2022-11-15T22:27:11.556Z,99323.56
2022-11-15T22:29:37.891Z,99319.03
2022-11-15T22:32:04.546Z,99312.66
2022-11-15T22:34:30.854Z,99322.72
2022-11-15T22:39:43.520Z,99314.50
2022-11-15T22:42:09.850Z,99312.00
2022-11-15T22:44:36.170Z,99309.16
2022-11-15T22:47:02.496Z,99306.66
2022-11-15T22:49:28.890Z,99303.13
2022-11-15T22:51:55.223Z,99287.84
2022-11-15T22:54:21.587Z,99287.84
2022-11-15T22:56:47.938Z,99294.38
2022-11-15T22:59:14.259Z,99284.16
2022-11-15T23:01:41.032Z,99289.50
2022-11-15T23:04:07.423Z,99284.16
2022-11-15T23:06:33.896Z,99281.47
2022-11-15T23:09:00.214Z,99277.81
2022-11-15T23:11:44.949Z,99271.09
2022-11-15T23:14:11.265Z,99278.97
2022-11-15T23:16:37.816Z,99278.97
2022-11-15T23:19:06.901Z,99276.63
2022-11-15T23:21:54.130Z,99285.16
2022-11-15T23:24:21.522Z,99279.13
2022-11-15T23:26:51.854Z,99269.75
2022-11-15T23:29:20.789Z,99273.09
2022-11-15T23:32:05.984Z,99277.81
2022-11-15T23:34:36.116Z,99270.09
2022-11-15T23:37:02.553Z,99271.44
2022-11-15T23:39:28.943Z,99281.66
2022-11-15T23:41:55.874Z,99273.97
2022-11-15T23:44:22.282Z,99272.75
2022-11-15T23:46:48.798Z,99270.75
2022-11-15T23:49:15.242Z,99265.06
2022-11-15T23:51:41.710Z,99264.41
2022-11-15T23:54:08.229Z,99258.91
2022-11-15T23:56:34.687Z,99259.22
2022-11-15T23:59:01.475Z,99265.78
